Time;durP1;ratioP1;P1;durP2;ratioP2;P2;SDS_P1;SDS_P2;PMS_P1;PMS_P2;Temp;Humidity;BMP_temperature;BMP_pressure;BME280_temperature;BME280_humidity;BME280_pressure;Samples;Min_cycle;Max_cycle;Signal;HPM_P1;HPM_P2
2023/01/19 00:05:32;;;;;;;12.25;7.47;;;;;;;19.83;50.32;95412.41;10543459;28;20079;-57
2023/01/19 00:10:51;;;;;;;10.15;7.57;;;;;;;19.81;50.42;95412.75;10556742;28;20502;-57
2023/01/19 00:16:11;;;;;;;11.38;7.53;;;;;;;19.79;50.35;95412.34;10542411;28;20056;-57
2023/01/19 00:21:30;;;;;;;11.60;7.25;;;;;;;19.77;50.37;95414.63;10541995;28;20097;-57
2023/01/19 00:26:49;;;;;;;13.38;7.30;;;;;;;19.76;50.35;95418.47;10542535;28;20113;-57
2023/01/19 00:32:09;;;;;;;10.32;7.05;;;;;;;19.74;50.24;95412.66;10541516;28;20499;-56
2023/01/19 00:37:28;;;;;;;10.88;7.03;;;;;;;19.72;50.19;95426.50;10542056;28;20055;-57
2023/01/19 00:42:48;;;;;;;9.63;6.60;;;;;;;19.70;50.22;95442.28;10555012;28;20048;-57
2023/01/19 00:48:07;;;;;;;9.70;6.55;;;;;;;19.69;50.21;95456.13;10619702;27;20058;-57
2023/01/19 00:53:31;;;;;;;11.35;6.72;;;;;;;19.66;50.23;95476.53;10626123;27;20058;-57
2023/01/19 00:58:50;;;;;;;8.52;6.20;;;;;;;19.65;50.14;95482.31;10639555;27;20445;-56
2023/01/19 01:04:12;;;;;;;10.05;6.70;;;;;;;19.63;50.10;95493.47;10625651;27;20104;-57
2023/01/19 01:09:32;;;;;;;8.63;6.07;;;;;;;19.62;50.05;95493.81;10625536;27;20441;-57
2023/01/19 01:14:51;;;;;;;11.02;6.30;;;;;;;19.61;50.15;95500.38;10638965;27;20035;-57
2023/01/19 01:20:15;;;;;;;10.63;6.90;;;;;;;19.59;50.06;95502.63;10625079;27;20078;-57
2023/01/19 01:25:36;;;;;;;9.48;6.07;;;;;;;19.58;50.13;95512.63;10624112;27;20051;-57
2023/01/19 01:30:56;;;;;;;8.65;5.95;;;;;;;19.56;49.99;95526.53;10624720;27;20452;-56
2023/01/19 01:36:15;;;;;;;8.38;5.78;;;;;;;19.53;49.93;95527.22;10624539;27;20051;-57
2023/01/19 01:41:35;;;;;;;9.15;5.72;;;;;;;19.52;50.03;95528.38;10638009;27;20042;-57
2023/01/19 01:46:54;;;;;;;8.35;5.50;;;;;;;19.51;50.08;95537.59;10623769;27;20077;-56
2023/01/19 01:52:14;;;;;;;9.15;5.88;;;;;;;19.49;50.10;95556.06;10608539;27;20144;-57
2023/01/19 01:57:36;;;;;;;7.40;5.32;;;;;;;19.46;49.98;95545.97;10623915;27;20051;-57
2023/01/19 02:02:58;;;;;;;7.55;5.28;;;;;;;19.45;49.95;95557.16;10624006;27;20517;-44
2023/01/19 02:14:03;;;;;;;7.93;5.38;;;;;;;19.42;49.89;95563.25;10623676;28;20096;-48
2023/01/19 02:19:27;;;;;;;7.03;5.15;;;;;;;19.40;49.65;95552.78;10623638;28;20047;-46
2023/01/19 02:24:48;;;;;;;7.45;5.43;;;;;;;19.38;49.86;95555.06;10637337;27;20031;-46
2023/01/19 02:30:09;;;;;;;6.28;5.20;;;;;;;19.36;49.81;95555.41;10623427;28;20055;-46
2023/01/19 02:35:30;;;;;;;7.80;5.32;;;;;;;19.35;49.71;95558.47;10623271;28;20047;-47
2023/01/19 02:40:49;;;;;;;6.30;4.38;;;;;;;19.33;49.87;95555.34;10629773;27;20035;-46
2023/01/19 02:46:09;;;;;;;6.13;4.45;;;;;;;19.32;49.79;95561.88;10631035;27;20055;-46
2023/01/19 02:51:29;;;;;;;6.72;4.47;;;;;;;19.30;49.72;95554.13;10631468;27;20043;-46
2023/01/19 02:57:00;;;;;;;6.28;4.50;;;;;;;19.28;49.73;95555.63;10615576;27;20055;-45
2023/01/19 03:02:32;;;;;;;6.03;4.35;;;;;;;19.26;49.72;95557.88;10615222;27;20051;-46
2023/01/19 03:08:11;;;;;;;7.72;4.85;;;;;;;19.24;49.52;95560.16;10629824;27;20047;-45
2023/01/19 03:13:46;;;;;;;5.75;4.35;;;;;;;19.23;49.71;95556.69;10630264;27;20047;-47
2023/01/19 03:19:40;;;;;;;5.97;4.30;;;;;;;19.21;49.67;95545.44;10629982;27;20047;-45
2023/01/19 03:25:00;;;;;;;5.13;3.85;;;;;;;19.20;49.48;95551.97;10603049;27;20047;-45
2023/01/19 03:30:24;;;;;;;5.03;3.75;;;;;;;19.17;49.68;95553.47;10627959;27;20398;-46
2023/01/19 03:35:48;;;;;;;5.22;4.00;;;;;;;19.16;49.59;95556.50;10629504;27;20051;-45
2023/01/19 03:41:11;;;;;;;5.75;4.20;;;;;;;19.13;49.60;95555.31;10613376;27;20043;-46
2023/01/19 03:46:31;;;;;;;5.30;3.92;;;;;;;19.12;49.50;95561.81;10628626;27;20059;-45
2023/01/19 03:51:54;;;;;;;5.28;3.92;;;;;;;19.10;49.53;95574.88;10627869;27;20051;-46
2023/01/19 03:57:15;;;;;;;5.85;4.07;;;;;;;19.08;49.47;95574.47;10612735;27;20067;-48
2023/01/19 04:02:35;;;;;;;5.65;4.22;;;;;;;19.08;49.46;95579.09;10628262;27;20043;-46
2023/01/19 04:07:54;;;;;;;6.63;4.07;;;;;;;19.06;49.49;95582.13;10627674;27;20486;-45
2023/01/19 04:13:14;;;;;;;5.03;3.60;;;;;;;19.04;49.44;95573.59;10641614;27;20084;-45
2023/01/19 04:18:33;;;;;;;5.13;3.80;;;;;;;19.04;49.48;95575.53;10627756;27;20070;-45
2023/01/19 04:23:53;;;;;;;5.18;3.50;;;;;;;19.03;49.50;95576.63;10627479;27;20043;-45
2023/01/19 04:29:13;;;;;;;5.03;3.78;;;;;;;19.01;49.45;95587.00;10627374;27;20051;-45
2023/01/19 04:34:32;;;;;;;4.43;3.78;;;;;;;18.98;49.55;95583.09;10627190;27;20055;-45
2023/01/19 04:39:52;;;;;;;4.72;3.20;;;;;;;18.98;49.34;95585.78;10626394;27;20491;-45
2023/01/19 04:45:12;;;;;;;4.40;3.40;;;;;;;18.96;49.40;95585.38;10626622;27;20422;-45
2023/01/19 04:50:32;;;;;;;3.60;3.20;;;;;;;18.94;49.41;95584.94;10626534;27;20054;-46
2023/01/19 04:55:53;;;;;;;4.05;3.45;;;;;;;18.92;49.40;95582.56;10626161;27;20051;-47
2023/01/19 05:01:13;;;;;;;4.70;3.38;;;;;;;18.90;49.32;95590.25;10625884;27;20072;-45
2023/01/19 05:06:33;;;;;;;4.30;3.08;;;;;;;18.90;49.34;95603.72;10625900;27;20055;-46
2023/01/19 05:11:53;;;;;;;3.75;3.03;;;;;;;18.87;49.32;95607.09;10625619;27;20039;-46
2023/01/19 05:17:12;;;;;;;3.55;3.17;;;;;;;18.88;49.34;95616.00;10625228;27;20096;-45
2023/01/19 05:22:31;;;;;;;3.35;2.80;;;;;;;18.86;49.84;95615.56;10624626;27;20055;-45
2023/01/19 05:27:51;;;;;;;4.00;2.95;;;;;;;18.86;49.45;95631.78;10624181;27;20050;-48
2023/01/19 05:33:10;;;;;;;5.13;3.58;;;;;;;18.83;49.51;95637.84;10624547;27;20047;-46
2023/01/19 05:38:30;;;;;;;4.25;3.20;;;;;;;18.82;49.52;95644.34;10638118;27;20432;-48
2023/01/19 05:43:49;;;;;;;3.38;2.70;;;;;;;18.80;49.54;95644.72;10624223;27;20055;-45
2023/01/19 05:49:10;;;;;;;3.80;2.78;;;;;;;18.81;49.39;95650.91;10624203;27;20058;-47
2023/01/19 05:54:30;;;;;;;3.95;2.83;;;;;;;18.82;49.34;95655.16;10637692;27;20039;-47
2023/01/19 05:59:50;;;;;;;6.63;2.78;;;;;;;18.81;49.58;95657.06;10623112;27;20495;-45
2023/01/19 06:05:10;;;;;;;5.10;2.92;;;;;;;18.83;49.60;95667.53;10622977;27;20051;-45
2023/01/19 06:10:29;;;;;;;4.13;2.55;;;;;;;18.84;49.68;95671.81;10623647;27;20125;-47
2023/01/19 06:15:55;;;;;;;7.32;3.40;;;;;;;18.86;49.98;95674.94;10623261;28;20047;-48
2023/01/19 06:21:15;;;;;;;6.15;3.30;;;;;;;18.87;49.86;95679.19;10623663;28;20047;-47
2023/01/19 06:26:34;;;;;;;11.38;4.65;;;;;;;18.87;49.83;95682.66;10622701;28;20552;-46
2023/01/19 06:31:54;;;;;;;10.00;4.40;;;;;;;18.88;49.79;95700.44;10623321;28;20051;-47
2023/01/19 06:37:15;;;;;;;10.98;4.90;;;;;;;18.91;49.75;95688.16;10623280;28;20410;-49
2023/01/19 06:42:35;;;;;;;15.13;5.00;;;;;;;18.93;49.81;95702.09;10623047;28;20051;-49
2023/01/19 06:47:54;;;;;;;16.90;5.45;;;;;;;18.93;50.00;95699.38;10623995;27;20047;-47
2023/01/19 06:53:15;;;;;;;10.50;5.10;;;;;;;18.96;50.03;95704.88;10623015;28;20043;-47
2023/01/19 06:58:35;;;;;;;18.27;5.43;;;;;;;18.98;50.07;95707.25;10622065;28;20491;-49
2023/01/19 07:03:54;;;;;;;11.95;4.60;;;;;;;18.99;50.07;95708.78;10622751;28;20047;-48
2023/01/19 07:09:15;;;;;;;9.63;4.70;;;;;;;19.00;49.94;95706.91;10622724;28;20051;-46
2023/01/19 07:14:35;;;;;;;8.95;4.80;;;;;;;19.03;49.98;95717.78;10622440;28;20059;-50
2023/01/19 07:19:54;;;;;;;12.00;5.03;;;;;;;19.06;50.05;95722.50;10635941;27;20039;-47
2023/01/19 07:25:14;;;;;;;11.48;4.50;;;;;;;19.07;49.92;95734.06;10625829;27;20084;-51
2023/01/19 07:30:33;;;;;;;9.50;4.18;;;;;;;19.09;50.06;95746.09;10629221;27;20051;-48
2023/01/19 07:35:53;;;;;;;7.88;4.30;;;;;;;19.12;49.88;95756.19;10629002;27;20407;-46
2023/01/19 07:41:12;;;;;;;11.25;4.55;;;;;;;19.14;50.00;95753.16;10629196;27;20054;-47
2023/01/19 07:46:32;;;;;;;7.95;3.95;;;;;;;19.15;50.02;95763.63;10628612;27;20204;-46
2023/01/19 07:51:51;;;;;;;9.88;4.00;;;;;;;19.18;49.90;95756.72;10628874;27;20047;-46
2023/01/19 07:57:10;;;;;;;7.95;4.00;;;;;;;19.21;49.82;95763.34;10628513;27;20047;-50
2023/01/19 08:02:32;;;;;;;8.50;3.75;;;;;;;19.23;49.86;95769.97;10641956;27;20398;-48
2023/01/19 08:07:52;;;;;;;8.10;4.13;;;;;;;19.25;49.88;95761.50;10628086;27;20107;-48
2023/01/19 08:13:12;;;;;;;11.73;4.32;;;;;;;19.25;49.87;95756.91;10627992;27;20051;-49
2023/01/19 08:18:32;;;;;;;6.97;3.75;;;;;;;19.27;49.83;95765.47;10627696;27;20410;-47
2023/01/19 08:23:55;;;;;;;7.97;3.47;;;;;;;19.27;49.86;95775.47;10627679;27;20055;-46
2023/01/19 08:29:15;;;;;;;8.82;3.65;;;;;;;19.28;49.85;95783.22;10627444;27;20065;-50
2023/01/19 08:34:35;;;;;;;9.27;3.70;;;;;;;19.29;50.00;95773.22;10626606;27;20051;-46
2023/01/19 08:39:54;;;;;;;6.30;3.63;;;;;;;19.30;50.09;95785.56;10626983;27;20047;-48
2023/01/19 08:45:13;;;;;;;6.38;3.20;;;;;;;19.30;49.92;95785.56;10635388;27;20051;-49
2023/01/19 08:50:34;;;;;;;6.32;3.08;;;;;;;19.30;50.07;95786.34;10626691;27;20093;-49
2023/01/19 08:55:56;;;;;;;5.13;3.20;;;;;;;19.32;49.95;95800.28;10626334;27;20058;-48
2023/01/19 09:01:17;;;;;;;4.95;2.92;;;;;;;19.33;49.84;95801.09;10626305;27;20051;-46
2023/01/19 09:06:36;;;;;;;5.75;2.92;;;;;;;19.34;49.88;95795.31;10626062;27;20051;-49
2023/01/19 09:11:56;;;;;;;5.45;3.30;;;;;;;19.36;49.92;95790.34;10639458;27;20046;-47
2023/01/19 09:17:16;;;;;;;6.03;2.92;;;;;;;19.38;49.78;95792.72;10625724;27;20068;-48
2023/01/19 09:22:38;;;;;;;5.97;2.78;;;;;;;19.41;49.67;95794.75;10625391;27;20054;-48
2023/01/19 09:27:58;;;;;;;6.47;3.03;;;;;;;19.42;49.88;95793.59;10625375;27;20107;-48
2023/01/19 09:33:18;;;;;;;7.28;3.15;;;;;;;19.45;49.79;95794.84;10625080;27;20418;-47
2023/01/19 09:38:38;;;;;;;5.55;2.95;;;;;;;19.46;49.79;95788.28;10624317;27;20541;-47
2023/01/19 09:43:59;;;;;;;7.40;3.13;;;;;;;19.49;49.83;95782.97;10624512;27;20058;-46
2023/01/19 09:49:26;;;;;;;5.93;2.67;;;;;;;19.51;49.58;95788.81;10623785;27;20063;-48
2023/01/19 09:54:53;;;;;;;5.57;3.00;;;;;;;19.55;49.68;95794.31;10623702;27;20051;-48
2023/01/19 10:00:17;;;;;;;5.53;2.83;;;;;;;19.56;49.81;95815.56;10623392;27;20047;-47
2023/01/19 10:05:48;;;;;;;6.28;2.65;;;;;;;19.60;49.77;95814.88;10608721;27;20051;-48
2023/01/19 10:11:24;;;;;;;5.07;2.92;;;;;;;19.62;49.80;95809.91;10607941;28;20514;-46
2023/01/19 10:17:13;;;;;;;4.88;2.75;;;;;;;19.63;49.47;95809.56;10623901;28;20107;-49
2023/01/19 10:22:32;;;;;;;3.47;2.25;;;;;;;19.65;49.56;95817.31;10608403;28;20043;-47
2023/01/19 10:27:52;;;;;;;6.65;2.53;;;;;;;19.68;49.49;95832.81;10623086;28;20051;-48
2023/01/19 10:33:12;;;;;;;4.43;2.50;;;;;;;19.70;49.65;95836.75;10623515;28;20059;-46
2023/01/19 10:38:33;;;;;;;3.92;2.53;;;;;;;19.72;49.40;95842.63;10607845;28;20415;-48
2023/01/19 10:44:02;;;;;;;4.03;2.60;;;;;;;19.75;49.41;95835.75;10620389;27;20100;-48
2023/01/19 10:49:34;;;;;;;3.70;2.30;;;;;;;19.78;49.24;95826.13;10622450;28;20051;-48
2023/01/19 10:54:54;;;;;;;2.90;2.10;;;;;;;19.80;49.18;95821.16;10636709;27;20047;-46
2023/01/19 11:00:41;;;;;;;3.88;2.25;;;;;;;19.82;49.06;95816.22;10627542;27;20047;-47
2023/01/19 11:06:16;;;;;;;3.60;2.42;;;;;;;19.84;49.04;95822.84;10630947;27;20051;-48
2023/01/19 11:11:51;;;;;;;3.30;2.22;;;;;;;19.88;48.70;95818.31;10630488;27;20044;-49
2023/01/19 11:17:23;;;;;;;4.10;2.30;;;;;;;19.90;48.65;95823.38;10630590;27;20073;-46
2023/01/19 11:22:42;;;;;;;3.60;2.20;;;;;;;19.91;48.51;95822.22;10614673;27;20456;-46
2023/01/19 11:28:02;;;;;;;2.20;1.90;;;;;;;19.94;48.59;95822.31;10629298;27;20059;-48
2023/01/19 11:33:51;;;;;;;3.80;2.17;;;;;;;19.95;48.32;95815.78;10629624;27;20047;-47
2023/01/19 11:39:19;;;;;;;3.28;1.90;;;;;;;19.98;48.33;95813.50;10629325;27;20070;-46
2023/01/19 11:44:43;;;;;;;2.67;1.80;;;;;;;19.99;48.30;95817.75;10628611;27;20051;-49
2023/01/19 11:50:28;;;;;;;2.58;1.80;;;;;;;20.02;47.98;95807.03;10629116;27;20043;-47
2023/01/19 11:55:57;;;;;;;2.80;1.85;;;;;;;20.03;48.01;95805.91;10629139;27;20407;-46
2023/01/19 12:01:35;;;;;;;5.07;1.77;;;;;;;20.06;47.44;95799.03;10612436;27;20494;-46
2023/01/19 12:06:56;;;;;;;4.50;2.00;;;;;;;20.07;47.45;95790.56;10627533;27;20055;-47
2023/01/19 12:12:25;;;;;;;5.90;2.00;;;;;;;20.10;47.37;95789.06;10626754;27;20499;-46
2023/01/19 12:17:46;;;;;;;2.50;1.90;;;;;;;20.11;47.44;95786.00;10628051;27;20047;-49
2023/01/19 12:23:45;;;;;;;3.33;1.80;;;;;;;20.15;47.87;95791.50;10612272;27;20058;-46
2023/01/19 12:29:10;;;;;;;2.63;1.63;;;;;;;20.19;49.10;95791.56;10612169;27;20047;-46
2023/01/19 12:34:45;;;;;;;2.65;1.75;;;;;;;20.21;49.18;95783.88;10626719;27;20486;-47
2023/01/19 12:40:24;;;;;;;3.13;1.83;;;;;;;20.23;49.42;95784.31;10627126;27;20043;-46
2023/01/19 12:45:46;;;;;;;2.13;1.60;;;;;;;20.24;49.18;95775.84;10626585;27;20055;-46
2023/01/19 12:51:06;;;;;;;2.25;1.63;;;;;;;20.26;49.23;95778.22;10611598;27;20043;-46
2023/01/19 12:56:31;;;;;;;2.13;1.50;;;;;;;20.28;49.11;95778.63;10626297;27;20047;-46
2023/01/19 13:02:23;;;;;;;2.67;1.52;;;;;;;20.28;48.80;95784.81;10609981;27;20058;-48
2023/01/19 13:08:01;;;;;;;2.40;1.30;;;;;;;20.29;48.62;95789.13;10619886;27;20108;-46
2023/01/19 13:13:25;;;;;;;2.10;1.37;;;;;;;20.31;48.65;95797.66;10625247;27;20486;-47
2023/01/19 13:18:57;;;;;;;4.22;1.50;;;;;;;20.32;48.76;95801.91;10624825;27;20096;-46
2023/01/19 13:24:21;;;;;;;3.13;1.60;;;;;;;20.34;48.69;95798.88;10625242;27;20073;-49
2023/01/19 13:29:41;;;;;;;1.52;1.42;;;;;;;20.35;48.40;95803.91;10609878;27;20051;-46
2023/01/19 13:35:01;;;;;;;2.65;1.50;;;;;;;20.35;48.50;95809.34;10624247;27;20104;-47
2023/01/19 13:40:23;;;;;;;1.98;1.42;;;;;;;20.38;48.27;95809.75;10608733;27;20555;-47
2023/01/19 13:45:47;;;;;;;1.80;1.25;;;;;;;20.38;48.21;95809.75;10624183;27;20103;-46
2023/01/19 13:51:16;;;;;;;2.22;1.50;;;;;;;20.39;48.04;95814.81;10624635;27;20058;-49
2023/01/19 13:56:36;;;;;;;2.15;1.40;;;;;;;20.41;47.92;95814.47;10624364;27;20062;-48
2023/01/19 14:02:03;;;;;;;2.40;1.50;;;;;;;20.41;48.03;95820.66;10623930;27;20047;-46
2023/01/19 14:07:25;;;;;;;2.70;1.58;;;;;;;20.42;48.03;95816.81;10624121;27;20055;-48
2023/01/19 14:12:45;;;;;;;5.38;1.80;;;;;;;20.43;48.03;95814.91;10623977;27;20051;-48
2023/01/19 14:18:17;;;;;;;2.80;1.60;;;;;;;20.44;47.86;95819.16;10623895;28;20059;-46
2023/01/19 14:24:04;;;;;;;2.75;1.50;;;;;;;20.45;47.60;95820.75;10623411;28;20051;-46
2023/01/19 14:29:29;;;;;;;3.72;1.70;;;;;;;20.45;47.61;95812.63;10608413;28;20464;-46
2023/01/19 14:35:11;;;;;;;4.10;2.10;;;;;;;20.47;47.76;95818.47;10628452;27;20062;-46
2023/01/19 14:40:30;;;;;;;3.25;2.03;;;;;;;20.48;47.63;95823.53;10632002;27;20043;-46
2023/01/19 14:45:50;;;;;;;3.95;1.90;;;;;;;20.48;47.66;95828.94;10631465;27;20452;-48
2023/01/19 14:51:16;;;;;;;4.57;2.08;;;;;;;20.49;47.39;95827.03;10645390;27;20047;-46
2023/01/19 14:56:36;;;;;;;5.25;2.00;;;;;;;20.51;47.40;95830.16;10630676;27;20445;-47
2023/01/19 15:01:55;;;;;;;5.13;2.13;;;;;;;20.52;47.49;95831.69;10644796;27;20039;-49
2023/01/19 15:07:18;;;;;;;4.00;2.17;;;;;;;20.51;47.44;95832.84;10630931;27;20058;-46
2023/01/19 15:12:37;;;;;;;4.50;1.95;;;;;;;20.53;47.57;95833.28;10630769;27;20384;-47
2023/01/19 15:17:58;;;;;;;4.63;2.45;;;;;;;20.52;47.34;95837.13;10630556;27;20058;-48
2023/01/19 15:23:17;;;;;;;5.00;2.22;;;;;;;20.53;47.40;95838.69;10614029;27;20055;-48
2023/01/19 15:28:36;;;;;;;4.25;1.98;;;;;;;20.54;47.33;95841.06;10629972;27;20047;-48
2023/01/19 15:33:55;;;;;;;4.80;2.25;;;;;;;20.55;47.30;95849.94;10629748;27;20123;-49
2023/01/19 15:39:15;;;;;;;3.85;1.90;;;;;;;20.55;47.41;95853.44;10643185;27;20042;-48
2023/01/19 15:44:34;;;;;;;3.13;1.80;;;;;;;20.55;47.24;95858.84;10627217;27;20503;-48
2023/01/19 15:49:53;;;;;;;3.63;1.98;;;;;;;20.56;47.36;95865.03;10629063;27;20043;-48
2023/01/19 15:55:14;;;;;;;3.97;1.80;;;;;;;20.56;47.20;95865.03;10628832;27;20096;-46
2023/01/19 16:00:34;;;;;;;4.32;1.75;;;;;;;20.56;47.08;95870.44;10628603;27;20054;-46
2023/01/19 16:05:53;;;;;;;3.78;1.88;;;;;;;20.55;47.35;95879.72;10628463;27;20047;-47
2023/01/19 16:11:14;;;;;;;3.45;1.90;;;;;;;20.55;47.26;95883.19;10628233;27;20051;-48
2023/01/19 16:16:33;;;;;;;4.03;1.98;;;;;;;20.54;47.38;95883.53;10641663;27;20039;-46
2023/01/19 16:21:53;;;;;;;3.15;1.80;;;;;;;20.53;47.24;95892.81;10641217;27;20040;-48
2023/01/19 16:27:12;;;;;;;4.90;2.00;;;;;;;20.51;47.38;95898.56;10626926;27;20062;-48
2023/01/19 16:32:32;;;;;;;3.65;1.80;;;;;;;20.52;47.31;95910.16;10627382;27;20047;-48
2023/01/19 16:37:52;;;;;;;4.07;1.88;;;;;;;20.51;47.41;95916.72;10627083;27;20047;-48
2023/01/19 16:43:13;;;;;;;3.75;1.90;;;;;;;20.51;47.47;95922.16;10626214;27;20498;-47
2023/01/19 16:48:33;;;;;;;3.95;2.08;;;;;;;20.51;47.40;95932.97;10626713;27;20050;-47
2023/01/19 16:53:52;;;;;;;2.38;1.40;;;;;;;20.50;47.19;95924.06;10626471;27;20403;-46
2023/01/19 16:59:13;;;;;;;2.05;1.50;;;;;;;20.51;47.27;95932.97;10625859;27;20054;-48
2023/01/19 17:04:32;;;;;;;2.90;1.63;;;;;;;20.51;47.32;95933.75;10625451;27;20499;-47
2023/01/19 17:09:53;;;;;;;3.17;1.70;;;;;;;20.51;47.14;95941.84;10639561;27;20081;-48
2023/01/19 17:15:12;;;;;;;3.38;1.65;;;;;;;20.52;47.20;95934.53;10625635;27;20081;-47
2023/01/19 17:20:32;;;;;;;3.53;1.75;;;;;;;20.52;47.39;95939.94;10625415;27;20422;-47
2023/01/19 17:25:56;;;;;;;3.03;1.90;;;;;;;20.54;47.22;95934.94;10624554;27;20513;-48
2023/01/19 17:31:18;;;;;;;3.35;1.50;;;;;;;20.53;47.26;95944.22;10624436;27;20047;-46
2023/01/19 17:36:39;;;;;;;3.28;1.80;;;;;;;20.54;47.17;95943.88;10624233;27;20499;-45
2023/01/19 17:41:59;;;;;;;3.83;1.70;;;;;;;20.54;47.33;95946.59;10638201;27;20057;-48
2023/01/19 17:47:24;;;;;;;2.67;1.70;;;;;;;20.55;47.01;95961.66;10623654;27;20067;-48
2023/01/19 17:52:43;;;;;;;5.13;2.35;;;;;;;20.58;47.15;95970.22;10623752;27;20051;-46
2023/01/19 17:58:02;;;;;;;2.80;1.95;;;;;;;20.59;47.45;95975.31;10637587;27;20522;-47
2023/01/19 18:03:22;;;;;;;5.07;1.95;;;;;;;20.58;47.41;95973.72;10623763;27;20437;-55
2023/01/19 18:08:45;;;;;;;4.90;1.90;;;;;;;20.60;47.35;95973.38;10622435;27;20059;-55
2023/01/19 18:14:05;;;;;;;4.90;2.00;;;;;;;20.61;47.32;95978.44;10623554;27;20050;-50
2023/01/19 18:19:25;;;;;;;4.22;1.50;;;;;;;20.62;47.55;95982.75;10622391;28;20054;-54
2023/01/19 18:24:47;;;;;;;4.00;3.08;;;;;;;20.62;45.36;95981.94;10622692;28;20047;-48
2023/01/19 18:30:07;;;;;;;3.33;2.20;;;;;;;20.53;42.86;95976.69;10594053;28;20069;-48
2023/01/19 18:35:27;;;;;;;4.15;2.30;;;;;;;20.55;44.99;95969.00;10623240;28;20051;-46
2023/01/19 18:40:47;;;;;;;3.80;2.05;;;;;;;20.58;44.98;95972.91;10607749;28;20112;-46
2023/01/19 18:46:07;;;;;;;3.08;2.33;;;;;;;20.57;44.96;95974.84;10628867;27;20503;-47
2023/01/19 18:51:27;;;;;;;3.63;2.20;;;;;;;20.60;45.29;95976.91;10636651;27;20043;-48
2023/01/19 18:56:49;;;;;;;3.10;1.83;;;;;;;20.61;45.58;95978.44;10622187;28;20503;-45
2023/01/19 19:02:12;;;;;;;2.67;1.75;;;;;;;20.63;45.81;95984.31;10622436;28;20051;-45
2023/01/19 19:07:32;;;;;;;4.88;1.70;;;;;;;20.63;45.96;95978.09;10622606;28;20092;-46
2023/01/19 19:12:51;;;;;;;2.65;1.75;;;;;;;20.63;46.26;95981.59;10636028;27;20043;-46
2023/01/19 19:18:12;;;;;;;3.67;1.88;;;;;;;20.65;46.61;95979.31;10621564;27;20062;-45
2023/01/19 19:23:32;;;;;;;4.30;2.03;;;;;;;20.65;46.18;95971.19;10628857;27;20051;-47
2023/01/19 19:28:51;;;;;;;2.45;1.88;;;;;;;20.65;46.25;95976.63;10628686;27;20051;-45
2023/01/19 19:34:11;;;;;;;2.45;1.70;;;;;;;20.65;46.63;95973.91;10642215;27;20039;-45
2023/01/19 19:39:30;;;;;;;2.75;1.70;;;;;;;20.67;46.52;95973.56;10628247;27;20051;-45
2023/01/19 19:44:51;;;;;;;2.55;1.85;;;;;;;20.67;46.53;95973.56;10627675;27;20063;-46
2023/01/19 19:50:11;;;;;;;2.00;1.65;;;;;;;20.67;46.52;95963.50;10627952;27;20066;-46
2023/01/19 19:55:31;;;;;;;4.00;1.60;;;;;;;20.66;46.55;95969.28;10641756;27;20038;-47
2023/01/19 20:00:50;;;;;;;2.97;1.50;;;;;;;20.66;46.69;95970.06;10627928;27;20047;-48
2023/01/19 20:06:13;;;;;;;1.77;1.50;;;;;;;20.66;47.01;95972.78;10627087;27;20092;-48
2023/01/19 20:11:33;;;;;;;2.50;1.58;;;;;;;20.67;47.04;95981.69;10626746;27;20054;-51
2023/01/19 20:16:53;;;;;;;2.83;1.60;;;;;;;20.68;46.98;95985.94;10626867;27;20081;-54
2023/01/19 20:22:13;;;;;;;3.60;1.50;;;;;;;20.67;46.98;95990.56;10626451;27;20043;-56
2023/01/19 20:27:33;;;;;;;2.47;1.60;;;;;;;20.66;47.38;95985.50;10626435;27;20054;-53
2023/01/19 20:32:53;;;;;;;4.20;1.70;;;;;;;20.67;47.47;95997.91;10626040;27;20096;-51
2023/01/19 20:38:13;;;;;;;2.75;1.75;;;;;;;20.68;47.38;96000.28;10627259;27;20050;-56
2023/01/19 20:43:33;;;;;;;3.85;1.90;;;;;;;-146.19;100.00;65364.44;10626808;27;20054;-53
2023/01/19 20:48:53;;;;;;;4.28;1.83;;;;;;;-146.19;100.00;65364.44;10626156;27;20495;-52
2023/01/19 20:54:15;;;;;;;2.97;2.08;;;;;;;-146.19;100.00;65364.44;10626228;27;20051;-46
2023/01/19 20:59:37;;;;;;;3.92;2.00;;;;;;;-146.19;100.00;65364.44;10624160;27;20091;-45
2023/01/19 21:04:56;;;;;;;6.68;2.10;;;;;;;-146.19;100.00;65364.44;10626045;27;20079;-54
2023/01/19 21:10:20;;;;;;;2.97;1.90;;;;;;;-146.19;100.00;65364.44;10625860;27;20054;-51
2023/01/19 21:15:40;;;;;;;3.92;2.03;;;;;;;-146.19;100.00;65364.44;10639351;27;20093;-52
2023/01/19 21:20:59;;;;;;;3.20;2.10;;;;;;;-146.19;100.00;65364.44;10639064;27;20508;-51
2023/01/19 21:26:19;;;;;;;2.35;1.80;;;;;;;-146.19;100.00;65364.44;10624452;27;20522;-45
2023/01/19 21:31:39;;;;;;;3.75;2.00;;;;;;;-146.19;100.00;65364.44;10624892;27;20054;-46
2023/01/19 21:37:00;;;;;;;5.18;2.33;;;;;;;-146.19;100.00;65364.44;10608796;27;20080;-46
2023/01/19 21:42:20;;;;;;;3.22;2.00;;;;;;;-146.19;100.00;65364.44;10623602;27;20055;-46
2023/01/19 21:47:39;;;;;;;5.65;2.20;;;;;;;-146.19;100.00;65364.44;10623724;27;20101;-46
2023/01/19 21:52:59;;;;;;;7.13;2.38;;;;;;;-146.19;100.00;65364.44;10623704;27;20054;-49
2023/01/19 21:58:20;;;;;;;5.80;2.40;;;;;;;-146.19;100.00;65364.44;10624159;27;20058;-47
2023/01/19 22:03:41;;;;;;;4.25;2.35;;;;;;;-146.19;100.00;65364.44;10607799;27;20490;-47
2023/01/19 22:09:00;;;;;;;3.55;2.50;;;;;;;-146.19;100.00;65364.44;10623876;27;20085;-47
2023/01/19 22:14:20;;;;;;;4.60;2.70;;;;;;;-146.19;100.00;65364.44;10637494;27;20080;-47
2023/01/19 22:19:39;;;;;;;6.30;2.90;;;;;;;-146.19;100.00;65364.44;10623653;28;20055;-45
2023/01/19 22:24:58;;;;;;;4.75;2.80;;;;;;;-146.19;100.00;65364.44;10623575;28;20062;-47
2023/01/19 22:30:18;;;;;;;3.75;2.58;;;;;;;-146.19;100.00;65364.44;10623418;28;20103;-46
2023/01/19 22:35:37;;;;;;;4.50;2.90;;;;;;;-146.19;100.00;65364.44;10623366;28;20051;-47
2023/01/19 22:40:56;;;;;;;4.40;2.70;;;;;;;-146.19;100.00;65364.44;10623199;28;20096;-48
2023/01/19 22:46:17;;;;;;;4.20;2.70;;;;;;;20.43;48.29;96012.41;10622664;28;20059;-46
2023/01/19 22:51:37;;;;;;;3.05;2.50;;;;;;;20.41;48.39;96012.72;10623094;28;20054;-47
2023/01/19 22:56:57;;;;;;;3.50;2.60;;;;;;;20.40;48.46;96018.50;10629648;27;20051;-46
2023/01/19 23:02:16;;;;;;;3.88;2.58;;;;;;;20.40;48.37;96015.78;10631095;27;20047;-47
2023/01/19 23:07:36;;;;;;;4.22;2.70;;;;;;;20.37;48.52;96019.97;10644671;27;20441;-47
2023/01/19 23:12:55;;;;;;;3.28;2.63;;;;;;;20.35;48.51;96022.25;10644509;27;20050;-48
2023/01/19 23:18:15;;;;;;;3.60;2.72;;;;;;;20.33;48.40;96019.88;10630578;27;20047;-47
2023/01/19 23:23:35;;;;;;;3.95;2.72;;;;;;;20.31;48.57;96021.38;10630307;27;20043;-48
2023/01/19 23:28:59;;;;;;;4.40;2.83;;;;;;;20.30;48.47;96020.56;10630254;27;20051;-47
2023/01/19 23:34:19;;;;;;;4.10;2.90;;;;;;;20.28;48.51;96022.84;10629943;27;20501;-45
2023/01/19 23:39:38;;;;;;;4.15;2.75;;;;;;;20.26;48.26;96027.81;10643405;27;20047;-47
2023/01/19 23:44:58;;;;;;;3.47;2.72;;;;;;;20.24;48.42;96021.19;10634397;27;20044;-46
2023/01/19 23:50:17;;;;;;;3.13;2.60;;;;;;;20.22;48.27;96018.81;10628743;27;20065;-47
2023/01/19 23:55:36;;;;;;;3.20;2.90;;;;;;;20.20;48.29;96031.91;10629112;27;20047;-46
